Burnley, United Kingdom
Current Conditions -  °F | °C
As of 9:20 AM on Monday 22 Dec 2014 (Local Time) from EGNM Reporting Station
Light Rain Light Rain  
Wind Chill: 52°   Ceiling: 1200
Heat Index: 52°   Visibility: 6mi
Dew Point: 48°   Wind: 39mph
Humidity: 88%   Direction: 260°W
Pressure: 29.68"   Gusts: 59mph
Location:  53.77°N, 2.23°W
Report Text: EGNM 220920Z 26034G51KT 230V290 9000 -RA BKN012 11/09 Q1005
Loading
Personal Weather Stations






























Interactive Weather Map New forecast layout! Learn more

10-Day Weather Forecast

Advertisements
Track Severe Weather on mobile